createdAt,value
2022-09-23T00:02:10.358Z,76.21
2022-09-23T00:05:11.831Z,75.95
2022-09-23T00:08:13.176Z,75.69
2022-09-23T00:11:18.116Z,75.78
2022-09-23T00:14:19.468Z,75.89
2022-09-23T00:17:20.825Z,75.84
2022-09-23T00:20:22.157Z,75.90
2022-09-23T00:23:23.580Z,75.80
2022-09-23T00:26:25.081Z,75.75
2022-09-23T00:29:26.504Z,75.76
2022-09-23T00:32:28.129Z,75.70
2022-09-23T00:35:29.472Z,75.74
2022-09-23T00:38:30.889Z,75.90
2022-09-23T00:41:32.786Z,76.07
2022-09-23T00:44:52.559Z,75.86
2022-09-23T00:47:57.921Z,75.91
2022-09-23T00:50:59.334Z,75.81
2022-09-23T00:54:02.006Z,75.92
2022-09-23T00:57:04.250Z,75.58
2022-09-23T01:00:07.290Z,75.62
2022-09-23T01:03:08.673Z,75.52
2022-09-23T01:06:10.762Z,75.58
2022-09-23T01:09:12.299Z,75.61
2022-09-23T01:12:34.874Z,75.57
2022-09-23T01:15:53.788Z,75.82
2022-09-23T01:19:06.410Z,75.75
2022-09-23T01:22:16.259Z,76.13
2022-09-23T01:25:39.039Z,75.82
2022-09-23T01:28:59.303Z,76.00
2022-09-23T01:32:13.448Z,76.33
2022-09-23T01:35:23.661Z,76.24
2022-09-23T01:39:03.426Z,76.50
2022-09-23T01:42:15.417Z,76.67
2022-09-23T01:45:31.349Z,76.51
2022-09-23T01:48:39.579Z,76.77
2022-09-23T01:51:47.905Z,76.88
2022-09-23T01:55:14.716Z,76.76
2022-09-23T01:58:24.365Z,76.94
2022-09-23T02:01:36.550Z,77.07
2022-09-23T02:04:50.253Z,77.15
2022-09-23T02:07:57.569Z,78.10
2022-09-23T02:11:05.113Z,77.51
2022-09-23T02:14:22.322Z,77.38
2022-09-23T02:17:33.677Z,77.14
2022-09-23T02:20:38.397Z,77.38
2022-09-23T02:23:45.185Z,77.38
2022-09-23T02:26:51.234Z,77.47
2022-09-23T02:30:01.781Z,77.37
2022-09-23T02:33:12.218Z,77.38
2022-09-23T02:36:24.746Z,77.56
2022-09-23T02:39:36.022Z,77.56
2022-09-23T02:43:13.731Z,77.80
2022-09-23T02:46:16.060Z,77.91
2022-09-23T02:49:22.346Z,77.99
2022-09-23T02:52:23.747Z,78.05
2022-09-23T02:55:28.834Z,78.13
2022-09-23T02:58:30.789Z,78.05
2022-09-23T03:02:08.328Z,78.11
2022-09-23T03:05:21.422Z,78.24
2022-09-23T03:08:35.484Z,78.20
2022-09-23T03:11:41.558Z,77.95
2022-09-23T03:14:54.363Z,78.07
2022-09-23T03:18:15.384Z,77.85
2022-09-23T03:21:28.235Z,77.71
2022-09-23T03:24:31.974Z,77.74
2022-09-23T03:27:35.802Z,77.67
2022-09-23T03:30:38.513Z,77.92
2022-09-23T03:33:45.268Z,77.95
2022-09-23T03:36:58.457Z,77.90
2022-09-23T03:40:18.049Z,78.23
2022-09-23T03:43:19.872Z,78.71
2022-09-23T03:46:21.212Z,78.91
2022-09-23T03:49:29.540Z,79.18
2022-09-23T03:52:31.073Z,79.69
2022-09-23T03:55:32.572Z,79.90
2022-09-23T03:58:33.906Z,80.02
2022-09-23T04:01:35.213Z,80.26
2022-09-23T04:04:38.012Z,80.50
2022-09-23T04:07:40.177Z,80.70
2022-09-23T04:10:41.607Z,80.73
2022-09-23T04:13:42.928Z,80.65
2022-09-23T04:16:44.436Z,80.51
2022-09-23T04:19:46.767Z,80.70
2022-09-23T04:22:48.091Z,80.53
2022-09-23T04:25:49.825Z,80.39
2022-09-23T04:28:51.162Z,80.11
2022-09-23T04:31:53.765Z,80.13
2022-09-23T04:34:55.170Z,80.17
2022-09-23T04:37:56.494Z,80.17
2022-09-23T04:40:57.824Z,80.14
2022-09-23T04:44:00.752Z,79.89
2022-09-23T04:47:02.211Z,80.07
2022-09-23T04:50:04.008Z,79.98
2022-09-23T04:53:05.807Z,80.04
2022-09-23T04:56:15.835Z,80.32
2022-09-23T04:59:17.171Z,80.77
2022-09-23T05:02:18.594Z,80.83
2022-09-23T05:05:20.035Z,80.73
2022-09-23T05:08:21.412Z,81.17
2022-09-23T05:11:23.717Z,81.25
2022-09-23T05:14:25.063Z,81.31
2022-09-23T05:17:26.509Z,81.34
2022-09-23T05:20:27.909Z,81.17
2022-09-23T05:23:30.437Z,81.11
2022-09-23T05:26:32.730Z,80.89
2022-09-23T05:29:34.550Z,80.83
2022-09-23T05:32:35.923Z,80.87
2022-09-23T05:35:37.314Z,80.95
2022-09-23T05:38:39.289Z,80.91
2022-09-23T05:41:40.633Z,80.92
2022-09-23T05:44:41.948Z,80.92
2022-09-23T05:47:43.285Z,80.89
2022-09-23T05:50:51.550Z,80.93
2022-09-23T05:53:54.816Z,80.81
2022-09-23T05:56:56.613Z,81.11
2022-09-23T05:59:58.973Z,81.10
2022-09-23T06:03:00.390Z,80.82
2022-09-23T06:06:01.817Z,80.81
2022-09-23T06:09:04.410Z,80.64
2022-09-23T06:12:05.866Z,80.83
2022-09-23T06:15:07.598Z,80.58
2022-09-23T06:18:09.022Z,80.74
2022-09-23T06:21:14.006Z,80.57
2022-09-23T06:24:19.642Z,80.88
2022-09-23T06:27:22.090Z,80.51
2022-09-23T06:30:23.438Z,79.92
2022-09-23T06:33:34.926Z,79.35
2022-09-23T06:36:43.931Z,79.10
2022-09-23T06:39:46.610Z,78.67
2022-09-23T06:42:52.301Z,77.99
2022-09-23T06:45:54.615Z,76.36
2022-09-23T06:48:55.987Z,74.15
2022-09-23T06:51:57.304Z,72.18
2022-09-23T06:54:58.729Z,70.14
2022-09-23T06:58:00.160Z,69.42
2022-09-23T07:01:07.236Z,67.20
2022-09-23T07:04:09.572Z,65.07
2022-09-23T07:07:11.028Z,65.61
2022-09-23T07:10:12.568Z,65.19
2022-09-23T07:13:16.276Z,64.78
2022-09-23T07:16:18.221Z,66.52
2022-09-23T07:19:19.620Z,65.61
2022-09-23T07:22:22.482Z,62.81
2022-09-23T07:25:23.817Z,60.31
2022-09-23T07:28:25.279Z,62.39
2022-09-23T07:31:38.748Z,61.83
2022-09-23T07:34:41.205Z,62.63
2022-09-23T07:37:42.527Z,61.72
2022-09-23T07:40:43.973Z,62.29
2022-09-23T07:43:46.311Z,62.84
2022-09-23T07:46:48.743Z,65.13
2022-09-23T07:49:50.141Z,66.70
2022-09-23T07:52:51.457Z,66.64
2022-09-23T07:55:54.990Z,66.76
2022-09-23T07:58:56.605Z,65.48
2022-09-23T08:01:58.030Z,65.32
2022-09-23T08:04:59.401Z,65.35
2022-09-23T08:08:00.882Z,64.06
2022-09-23T08:11:05.182Z,63.38
2022-09-23T08:14:06.551Z,65.15
2022-09-23T08:17:08.746Z,65.96
2022-09-23T08:20:10.603Z,65.94
2022-09-23T08:23:12.252Z,60.94
2022-09-23T08:26:19.759Z,58.61
2022-09-23T08:29:25.139Z,58.72
2022-09-23T08:32:26.414Z,57.97
2022-09-23T08:35:27.734Z,61.44
2022-09-23T08:38:29.564Z,62.40
2022-09-23T08:41:56.071Z,60.79
2022-09-23T08:45:04.671Z,62.22
2022-09-23T08:48:13.349Z,61.45
2022-09-23T08:51:20.163Z,61.62
2022-09-23T08:54:21.770Z,61.07
2022-09-23T08:58:23.862Z,59.60
2022-09-23T09:01:43.362Z,58.75
2022-09-23T09:04:49.200Z,58.52
2022-09-23T09:07:53.648Z,58.81
2022-09-23T09:10:57.300Z,58.36
2022-09-23T09:14:11.130Z,59.02
2022-09-23T09:17:37.976Z,57.74
2022-09-23T09:21:12.545Z,58.21
2022-09-23T09:24:34.449Z,59.31
2022-09-23T09:27:40.605Z,57.86
2022-09-23T09:30:48.222Z,57.82
2022-09-23T09:34:11.675Z,56.78
2022-09-23T09:37:38.557Z,56.90
2022-09-23T09:40:45.930Z,57.00
2022-09-23T09:43:48.038Z,57.71
2022-09-23T09:47:14.879Z,57.49
2022-09-23T09:50:19.337Z,57.09
2022-09-23T09:53:31.333Z,56.63
2022-09-23T09:56:35.599Z,57.00
2022-09-23T09:59:37.058Z,56.59
2022-09-23T10:02:39.605Z,57.50
2022-09-23T10:05:43.723Z,57.31
2022-09-23T10:09:03.188Z,56.81
2022-09-23T10:12:17.033Z,55.73
2022-09-23T10:15:45.321Z,56.54
2022-09-23T10:18:46.861Z,56.75
2022-09-23T10:21:52.934Z,56.31
2022-09-23T10:24:54.779Z,56.83
2022-09-23T10:27:56.206Z,56.35
2022-09-23T10:31:06.567Z,56.37
2022-09-23T10:34:27.195Z,55.40
2022-09-23T10:38:04.110Z,54.69
2022-09-23T10:41:30.784Z,54.17
2022-09-23T10:44:56.901Z,54.14
2022-09-23T10:48:37.262Z,54.97
2022-09-23T10:51:44.676Z,55.34
2022-09-23T10:55:20.231Z,53.82
2022-09-23T10:58:33.471Z,53.42
2022-09-23T11:01:51.203Z,54.55
2022-09-23T11:05:25.416Z,53.25
2022-09-23T11:08:46.992Z,53.19
2022-09-23T11:12:06.353Z,53.31
2022-09-23T11:15:17.287Z,53.48
2022-09-23T11:18:44.781Z,53.85
2022-09-23T11:21:54.307Z,53.82
2022-09-23T11:25:01.615Z,54.64
2022-09-23T11:28:12.169Z,53.58
2022-09-23T11:31:26.046Z,53.25
2022-09-23T11:34:33.251Z,54.10
2022-09-23T11:37:45.350Z,53.53
2022-09-23T11:40:49.665Z,54.06
2022-09-23T11:44:15.353Z,53.00
2022-09-23T11:47:28.061Z,51.91
2022-09-23T11:50:38.047Z,51.37
2022-09-23T11:53:53.484Z,51.82
2022-09-23T11:57:00.019Z,51.67
2022-09-23T12:00:12.562Z,51.22
2022-09-23T12:03:42.793Z,51.11
2022-09-23T12:06:49.802Z,52.08
2022-09-23T12:10:01.998Z,51.45
2022-09-23T12:13:10.903Z,51.72
2022-09-23T12:16:39.863Z,49.05
2022-09-23T12:20:12.335Z,50.45
2022-09-23T12:23:16.369Z,49.96
2022-09-23T12:26:21.965Z,50.15
2022-09-23T12:29:26.230Z,50.42
2022-09-23T12:32:28.359Z,51.02
2022-09-23T12:35:39.835Z,49.82
2022-09-23T12:38:50.321Z,48.52
2022-09-23T12:41:58.240Z,48.32
2022-09-23T12:45:33.795Z,47.36
2022-09-23T12:48:51.022Z,49.27
2022-09-23T12:52:29.101Z,48.37
2022-09-23T12:55:33.162Z,49.18
2022-09-23T12:58:56.586Z,48.85
2022-09-23T13:02:10.071Z,47.41
2022-09-23T13:05:19.405Z,49.21
2022-09-23T13:08:24.744Z,48.99
2022-09-23T13:11:29.568Z,49.62
2022-09-23T13:14:33.485Z,49.70
2022-09-23T13:17:39.998Z,48.36
2022-09-23T13:20:41.517Z,48.51
2022-09-23T13:24:18.057Z,48.17
2022-09-23T13:27:49.262Z,47.65
2022-09-23T13:30:50.670Z,48.57
2022-09-23T13:34:01.685Z,48.16
2022-09-23T13:37:23.215Z,49.02
2022-09-23T13:40:27.341Z,49.86
2022-09-23T13:43:40.286Z,49.07
2022-09-23T13:46:46.622Z,48.93
2022-09-23T13:49:48.386Z,48.89
2022-09-23T13:52:55.440Z,48.41
2022-09-23T13:56:16.084Z,47.42
2022-09-23T13:59:41.549Z,48.54
2022-09-23T14:02:43.675Z,48.88
2022-09-23T14:05:46.006Z,49.07
2022-09-23T14:08:49.379Z,49.09
2022-09-23T14:11:51.665Z,48.99
2022-09-23T14:14:53.127Z,48.68
2022-09-23T14:18:03.508Z,48.82
2022-09-23T14:21:05.765Z,49.57
2022-09-23T14:24:14.938Z,48.47
2022-09-23T14:27:21.709Z,48.97
2022-09-23T14:30:23.088Z,49.38
2022-09-23T14:33:39.044Z,49.56
2022-09-23T14:36:40.398Z,49.16
2022-09-23T14:39:41.817Z,49.92
2022-09-23T14:42:47.745Z,50.13
2022-09-23T14:46:16.187Z,49.73
2022-09-23T14:49:17.674Z,50.33
2022-09-23T14:52:19.018Z,50.68
2022-09-23T14:55:20.381Z,51.26
2022-09-23T14:58:27.640Z,51.38
2022-09-23T15:01:32.335Z,51.61
2022-09-23T15:04:33.976Z,51.56
2022-09-23T15:07:37.937Z,52.09
2022-09-23T15:10:40.511Z,52.41
2022-09-23T15:13:43.161Z,53.16
2022-09-23T15:16:46.267Z,53.60
2022-09-23T15:19:50.623Z,54.50
2022-09-23T15:22:54.584Z,53.85
2022-09-23T15:25:55.930Z,53.70
2022-09-23T15:28:58.740Z,53.75
2022-09-23T15:32:00.245Z,54.44
2022-09-23T15:35:01.658Z,54.39
2022-09-23T15:38:03.174Z,54.36
2022-09-23T15:41:04.653Z,53.94
2022-09-23T15:44:18.355Z,54.44
2022-09-23T15:47:19.783Z,54.65
2022-09-23T15:50:21.282Z,55.23
2022-09-23T15:53:24.939Z,55.30
2022-09-23T15:56:26.340Z,55.79
2022-09-23T15:59:28.420Z,56.18
2022-09-23T16:02:30.038Z,56.51
2022-09-23T16:05:35.857Z,57.34
2022-09-23T16:08:37.370Z,58.47
2022-09-23T16:11:43.224Z,58.80
2022-09-23T16:14:44.553Z,59.68
2022-09-23T16:17:46.046Z,60.32
2022-09-23T16:20:49.136Z,61.12
2022-09-23T16:23:50.620Z,63.20
2022-09-23T16:26:51.970Z,61.79
2022-09-23T16:29:53.306Z,62.58
2022-09-23T16:32:54.883Z,62.90
2022-09-23T16:35:57.252Z,63.21
2022-09-23T16:39:00.716Z,63.26
2022-09-23T16:42:02.085Z,63.62
2022-09-23T16:45:03.684Z,63.71
2022-09-23T16:48:05.677Z,63.61
2022-09-23T16:51:16.225Z,63.58
2022-09-23T16:54:17.648Z,62.90
2022-09-23T16:57:18.993Z,62.34
2022-09-23T17:00:21.019Z,61.81
2022-09-23T17:03:22.406Z,61.56
2022-09-23T17:06:23.745Z,61.44
2022-09-23T17:09:27.830Z,61.81
2022-09-23T17:12:31.842Z,62.33
2022-09-23T17:15:36.019Z,62.45
2022-09-23T17:18:38.098Z,63.18
2022-09-23T17:21:39.503Z,63.47
2022-09-23T17:24:40.967Z,63.65
2022-09-23T17:27:42.330Z,63.90
2022-09-23T17:30:43.653Z,64.37
2022-09-23T17:33:45.047Z,64.58
2022-09-23T17:36:46.436Z,64.78
2022-09-23T17:39:47.763Z,64.97
2022-09-23T17:42:49.109Z,65.16
2022-09-23T17:45:55.776Z,65.29
2022-09-23T17:48:57.634Z,65.87
2022-09-23T17:51:59.009Z,66.01
2022-09-23T17:55:00.320Z,65.82
2022-09-23T17:58:01.665Z,65.95
2022-09-23T18:01:04.754Z,66.09
2022-09-23T18:04:06.333Z,67.22
2022-09-23T18:07:07.741Z,66.38
2022-09-23T18:10:09.348Z,66.57
2022-09-23T18:13:10.781Z,66.69
2022-09-23T18:16:12.190Z,66.89
2022-09-23T18:19:16.269Z,67.17
2022-09-23T18:22:17.605Z,67.53
2022-09-23T18:25:38.010Z,67.71
2022-09-23T18:28:39.839Z,67.84
2022-09-23T18:31:41.728Z,67.63
2022-09-23T18:34:43.163Z,67.17
2022-09-23T18:37:44.489Z,67.23
2022-09-23T18:40:53.045Z,66.96
2022-09-23T18:43:54.887Z,66.57
2022-09-23T18:46:56.226Z,66.73
2022-09-23T18:49:57.639Z,66.97
2022-09-23T18:52:59.479Z,66.92
2022-09-23T18:56:11.912Z,66.87
2022-09-23T18:59:17.701Z,67.17
2022-09-23T19:02:19.124Z,67.12
2022-09-23T19:05:20.516Z,67.26
2022-09-23T19:08:21.828Z,67.45
2022-09-23T19:11:23.754Z,67.93
2022-09-23T19:14:25.080Z,67.97
2022-09-23T19:17:26.415Z,68.61
2022-09-23T19:20:27.725Z,68.74
2022-09-23T19:23:31.461Z,68.64
2022-09-23T19:26:35.663Z,68.66
2022-09-23T19:29:37.004Z,68.68
2022-09-23T19:32:38.329Z,68.29
2022-09-23T19:35:47.361Z,67.93
2022-09-23T19:38:48.701Z,68.22
2022-09-23T19:41:51.247Z,68.22
2022-09-23T19:44:52.592Z,68.61
2022-09-23T19:47:54.757Z,68.64
2022-09-23T19:50:56.318Z,68.98
2022-09-23T19:53:57.651Z,69.40
2022-09-23T19:56:58.981Z,69.80
2022-09-23T20:00:00.508Z,69.95
2022-09-23T20:03:01.935Z,70.56
2022-09-23T20:06:03.405Z,70.59
2022-09-23T20:09:05.113Z,70.57
2022-09-23T20:12:06.661Z,71.11
2022-09-23T20:15:09.198Z,71.38
2022-09-23T20:18:10.634Z,71.57
2022-09-23T20:21:14.511Z,71.56
2022-09-23T20:24:15.854Z,71.82
2022-09-23T20:27:17.202Z,72.14
2022-09-23T20:30:19.338Z,72.21
2022-09-23T20:33:20.686Z,72.84
2022-09-23T20:36:22.010Z,72.95
2022-09-23T20:39:23.346Z,73.33
2022-09-23T20:42:24.683Z,73.34
2022-09-23T20:45:26.010Z,73.47
2022-09-23T20:48:29.431Z,73.41
2022-09-23T20:51:30.903Z,73.24
2022-09-23T20:54:32.239Z,73.27
2022-09-23T20:57:33.564Z,73.39
2022-09-23T21:00:34.957Z,74.01
2022-09-23T21:03:41.664Z,74.32
2022-09-23T21:06:43.075Z,74.59
2022-09-23T21:09:44.394Z,74.89
2022-09-23T21:12:47.935Z,75.62
2022-09-23T21:15:49.699Z,75.82
2022-09-23T21:18:51.915Z,75.51
2022-09-23T21:21:53.355Z,75.47
2022-09-23T21:25:26.181Z,75.98
2022-09-23T21:28:16.007Z,75.84
2022-09-23T21:31:20.235Z,76.36
2022-09-23T21:34:21.621Z,76.32
2022-09-23T21:37:22.964Z,76.30
2022-09-23T21:40:24.443Z,76.65
2022-09-23T21:43:27.503Z,76.69
2022-09-23T21:46:29.034Z,76.65
2022-09-23T21:49:30.461Z,76.36
2022-09-23T21:52:31.788Z,76.20
2022-09-23T21:55:33.244Z,76.19
2022-09-23T21:58:35.713Z,76.09
2022-09-23T22:01:40.558Z,76.08
2022-09-23T22:04:41.980Z,76.40
2022-09-23T22:07:43.400Z,76.58
2022-09-23T22:10:44.728Z,76.62
2022-09-23T22:13:46.081Z,76.67
2022-09-23T22:16:47.554Z,76.78
2022-09-23T22:19:49.177Z,76.83
2022-09-23T22:22:50.518Z,77.07
2022-09-23T22:25:59.507Z,76.93
2022-09-23T22:29:06.015Z,77.00
2022-09-23T22:32:11.552Z,76.78
2022-09-23T22:35:16.893Z,76.80
2022-09-23T22:38:18.251Z,76.93
2022-09-23T22:41:19.626Z,77.25
2022-09-23T22:44:21.262Z,77.25
2022-09-23T22:47:22.970Z,77.20
2022-09-23T22:50:24.302Z,77.46
2022-09-23T22:53:27.611Z,77.58
2022-09-23T22:56:28.996Z,78.32
2022-09-23T22:59:30.506Z,77.72
2022-09-23T23:02:31.854Z,77.39
2022-09-23T23:05:33.203Z,77.62
2022-09-23T23:08:35.655Z,77.42
2022-09-23T23:11:37.656Z,77.42
2022-09-23T23:14:39.010Z,77.34
2022-09-23T23:17:40.389Z,77.48
2022-09-23T23:20:41.721Z,77.83
2022-09-23T23:23:53.380Z,77.72
2022-09-23T23:26:54.743Z,77.94
2022-09-23T23:29:56.097Z,77.92
2022-09-23T23:32:57.431Z,78.21
2022-09-23T23:35:58.867Z,78.71
2022-09-23T23:39:00.244Z,78.72
2022-09-23T23:42:01.635Z,78.55
2022-09-23T23:45:03.231Z,78.45
2022-09-23T23:48:04.596Z,78.65
2022-09-23T23:51:07.721Z,78.81
2022-09-23T23:54:10.630Z,79.12
2022-09-23T23:57:11.996Z,79.33
